createdAt,value
2018-07-24T00:02:16.301Z,5.13
2018-07-24T00:04:45.097Z,5.00
2018-07-24T00:07:13.724Z,5.30
2018-07-24T00:09:42.533Z,4.93
2018-07-24T00:12:11.310Z,5.70
2018-07-24T00:14:40.211Z,5.23
2018-07-24T00:17:09.013Z,5.13
2018-07-24T00:19:37.797Z,5.53
2018-07-24T00:22:06.821Z,5.47
2018-07-24T00:24:35.705Z,5.50
2018-07-24T00:27:04.457Z,5.50
2018-07-24T00:29:33.237Z,5.77
2018-07-24T00:32:02.024Z,5.90
2018-07-24T00:34:30.762Z,6.33
2018-07-24T00:36:59.499Z,7.70
2018-07-24T00:39:28.300Z,6.73
2018-07-24T00:41:57.108Z,6.30
2018-07-24T00:47:23.245Z,7.00
2018-07-24T00:49:52.074Z,7.10
2018-07-24T00:52:20.901Z,7.07
2018-07-24T00:54:49.961Z,7.47
2018-07-24T00:57:18.731Z,7.30
2018-07-24T00:59:47.294Z,7.27
2018-07-24T01:02:15.955Z,6.67
2018-07-24T01:04:44.844Z,7.13
2018-07-24T01:07:13.395Z,7.53
2018-07-24T01:09:42.085Z,6.33
2018-07-24T01:12:10.847Z,7.00
2018-07-24T01:14:39.647Z,9.23
2018-07-24T01:17:08.432Z,7.70
2018-07-24T01:19:37.705Z,7.10
2018-07-24T01:22:06.507Z,7.33
2018-07-24T01:24:36.890Z,7.07
2018-07-24T01:27:05.656Z,7.27
2018-07-24T01:29:34.516Z,8.20
2018-07-24T01:32:03.293Z,8.13
2018-07-24T01:34:32.097Z,7.70
2018-07-24T01:37:00.999Z,7.27
2018-07-24T01:39:29.813Z,7.50
2018-07-24T01:41:58.636Z,7.20
2018-07-24T01:44:27.424Z,6.83
2018-07-24T01:46:56.201Z,6.30
2018-07-24T01:49:25.013Z,6.63
2018-07-24T01:51:53.825Z,6.67
2018-07-24T01:54:22.741Z,7.10
2018-07-24T01:56:52.109Z,7.27
2018-07-24T01:59:21.315Z,8.10
2018-07-24T02:01:50.425Z,8.63
2018-07-24T02:04:19.285Z,8.30
2018-07-24T02:06:48.109Z,8.47
2018-07-24T02:09:16.737Z,8.93
2018-07-24T02:11:45.417Z,9.33
2018-07-24T02:14:14.350Z,10.77
2018-07-24T02:16:43.412Z,10.30
2018-07-24T02:19:12.201Z,8.77
2018-07-24T02:21:41.348Z,9.00
2018-07-24T02:24:10.189Z,9.27
2018-07-24T02:26:39.091Z,9.73
2018-07-24T02:29:08.113Z,10.53
2018-07-24T02:31:37.169Z,9.77
2018-07-24T02:34:06.534Z,9.47
2018-07-24T02:36:35.186Z,9.87
2018-07-24T02:39:06.424Z,10.13
2018-07-24T02:41:35.262Z,10.07
2018-07-24T02:44:04.046Z,9.93
2018-07-24T02:46:32.721Z,9.77
2018-07-24T02:49:01.225Z,9.50
2018-07-24T02:51:30.209Z,8.77
2018-07-24T02:53:59.333Z,10.07
2018-07-24T02:56:28.592Z,9.77
2018-07-24T02:58:57.161Z,9.10
2018-07-24T03:01:26.260Z,9.70
2018-07-24T03:03:55.185Z,9.90
2018-07-24T03:06:24.206Z,10.57
2018-07-24T03:08:53.017Z,10.53
2018-07-24T03:11:21.834Z,10.40
2018-07-24T03:13:50.589Z,10.00
2018-07-24T03:16:19.713Z,10.10
2018-07-24T03:18:48.232Z,11.50
2018-07-24T03:21:16.970Z,12.10
2018-07-24T03:23:45.754Z,11.13
2018-07-24T03:26:14.551Z,12.03
2018-07-24T03:28:43.337Z,12.10
2018-07-24T03:31:12.121Z,11.83
2018-07-24T03:33:40.909Z,13.13
2018-07-24T03:36:09.694Z,12.13
2018-07-24T03:38:38.565Z,12.63
2018-07-24T03:41:07.375Z,11.97
2018-07-24T03:43:36.181Z,12.30
2018-07-24T03:46:05.177Z,13.17
2018-07-24T03:48:33.948Z,13.37
2018-07-24T03:51:02.755Z,12.80
2018-07-24T03:53:31.540Z,13.03
2018-07-24T03:56:00.334Z,12.00
2018-07-24T03:58:29.107Z,12.10
2018-07-24T04:00:58.093Z,13.03
2018-07-24T04:03:26.902Z,12.63
2018-07-24T04:05:55.765Z,12.50
2018-07-24T04:08:24.544Z,12.40
2018-07-24T04:10:53.372Z,12.73
2018-07-24T04:13:22.361Z,12.53
2018-07-24T04:15:51.220Z,13.03
2018-07-24T04:18:20.001Z,13.70
2018-07-24T04:20:49.002Z,13.57
2018-07-24T04:23:17.788Z,14.90
2018-07-24T04:25:46.573Z,14.00
2018-07-24T04:28:15.434Z,14.30
2018-07-24T04:30:44.106Z,13.67
2018-07-24T04:33:12.622Z,13.47
2018-07-24T04:35:41.313Z,14.70
2018-07-24T04:38:10.043Z,13.80
2018-07-24T04:40:38.840Z,15.83
2018-07-24T04:43:07.897Z,15.77
2018-07-24T04:45:36.705Z,13.57
2018-07-24T04:48:05.843Z,15.07
2018-07-24T04:50:34.728Z,15.50
2018-07-24T04:53:03.552Z,15.73
2018-07-24T04:55:32.456Z,14.60
2018-07-24T04:58:01.713Z,15.10
2018-07-24T05:00:30.462Z,16.37
2018-07-24T05:02:59.478Z,14.53
2018-07-24T05:05:28.437Z,14.77
2018-07-24T05:07:57.280Z,14.80
2018-07-24T05:10:26.339Z,13.67
2018-07-24T05:12:55.273Z,13.90
2018-07-24T05:15:24.365Z,13.43
2018-07-24T05:17:53.154Z,14.00
2018-07-24T05:20:21.878Z,13.20
2018-07-24T05:22:51.017Z,12.63
2018-07-24T05:25:20.181Z,12.73
2018-07-24T05:27:49.309Z,13.33
2018-07-24T05:30:18.601Z,12.93
2018-07-24T05:32:47.736Z,12.60
2018-07-24T05:35:16.297Z,14.70
2018-07-24T05:37:44.792Z,18.47
2018-07-24T05:40:13.531Z,15.60
2018-07-24T05:42:42.381Z,19.80
2018-07-24T05:45:11.237Z,12.10
2018-07-24T05:47:40.317Z,15.90
2018-07-24T05:50:09.277Z,10.30
2018-07-24T05:52:38.613Z,12.10
2018-07-24T05:55:07.439Z,9.57
2018-07-24T05:57:36.272Z,9.17
2018-07-24T06:00:05.781Z,7.80
2018-07-24T06:02:34.661Z,8.80
2018-07-24T06:05:03.464Z,7.10
2018-07-24T06:07:32.240Z,7.93
2018-07-24T06:10:00.989Z,6.97
2018-07-24T06:12:29.795Z,7.03
2018-07-24T06:14:58.628Z,6.70
2018-07-24T06:17:27.479Z,6.77
2018-07-24T06:19:56.261Z,7.07
2018-07-24T06:22:25.097Z,6.07
2018-07-24T06:24:54.077Z,6.33
2018-07-24T06:27:22.918Z,7.23
2018-07-24T06:29:51.713Z,5.97
2018-07-24T06:32:20.644Z,5.80
2018-07-24T06:34:49.476Z,6.90
2018-07-24T06:37:18.284Z,5.90
2018-07-24T06:39:46.846Z,6.30
2018-07-24T06:42:15.665Z,6.67
2018-07-24T06:44:44.450Z,6.40
2018-07-24T06:47:13.074Z,5.43
2018-07-24T06:49:41.849Z,5.30
2018-07-24T06:52:10.680Z,5.20
2018-07-24T06:54:39.512Z,4.40
2018-07-24T06:57:08.577Z,5.47
2018-07-24T06:59:37.393Z,4.90
2018-07-24T07:02:06.522Z,4.37
2018-07-24T07:04:35.362Z,4.00
2018-07-24T07:07:04.042Z,2.90
2018-07-24T07:09:33.257Z,3.67
2018-07-24T07:12:02.075Z,3.50
2018-07-24T07:14:30.890Z,3.23
2018-07-24T07:16:59.693Z,3.00
2018-07-24T07:19:28.509Z,3.17
2018-07-24T07:21:57.329Z,2.50
2018-07-24T07:24:26.153Z,3.00
2018-07-24T07:26:54.971Z,2.70
2018-07-24T07:29:23.769Z,2.37
2018-07-24T07:31:52.596Z,2.13
2018-07-24T07:34:21.317Z,2.80
2018-07-24T07:36:50.129Z,2.70
2018-07-24T07:39:18.996Z,2.50
2018-07-24T07:41:47.904Z,2.40
2018-07-24T07:44:16.531Z,2.23
2018-07-24T07:46:45.289Z,2.10
2018-07-24T07:49:14.061Z,3.07
2018-07-24T07:51:42.941Z,2.87
2018-07-24T07:54:11.728Z,2.73
2018-07-24T07:56:40.554Z,2.57
2018-07-24T07:59:09.249Z,2.43
2018-07-24T08:01:38.065Z,2.33
2018-07-24T08:04:06.976Z,2.40
2018-07-24T08:06:36.073Z,2.20
2018-07-24T08:09:07.457Z,2.50
2018-07-24T08:11:36.003Z,2.23
2018-07-24T08:14:04.778Z,2.33
2018-07-24T08:16:33.509Z,2.20
2018-07-24T08:19:02.084Z,2.60
2018-07-24T08:21:30.605Z,2.40
2018-07-24T08:23:59.333Z,2.37
2018-07-24T08:26:28.317Z,2.80
2018-07-24T08:28:57.337Z,2.60
2018-07-24T08:31:26.123Z,2.40
2018-07-24T08:33:55.432Z,2.60
2018-07-24T08:36:24.217Z,2.37
2018-07-24T08:38:53.021Z,2.40
2018-07-24T08:41:21.585Z,2.23
2018-07-24T08:43:50.104Z,2.40
2018-07-24T08:46:18.793Z,2.60
2018-07-24T08:48:47.826Z,2.40
2018-07-24T08:51:16.354Z,2.47
2018-07-24T08:53:45.703Z,2.13
2018-07-24T08:56:14.113Z,1.90
2018-07-24T08:58:43.269Z,2.27
2018-07-24T09:01:12.127Z,2.30
2018-07-24T09:03:40.846Z,2.10
2018-07-24T09:06:09.598Z,2.00
2018-07-24T09:08:38.192Z,2.10
2018-07-24T09:11:06.966Z,2.13
2018-07-24T09:13:35.780Z,2.03
2018-07-24T09:16:04.571Z,1.97
2018-07-24T09:18:33.429Z,2.00
2018-07-24T09:21:02.438Z,2.30
2018-07-24T09:23:31.213Z,2.27
2018-07-24T09:26:00.213Z,2.00
2018-07-24T09:28:28.989Z,2.30
2018-07-24T09:30:57.993Z,1.80
2018-07-24T09:33:26.793Z,2.13
2018-07-24T09:35:55.649Z,2.20
2018-07-24T09:38:24.457Z,3.17
2018-07-24T09:40:53.187Z,2.47
2018-07-24T09:43:21.850Z,3.70
2018-07-24T09:45:50.725Z,3.10
2018-07-24T09:48:19.508Z,3.17
2018-07-24T09:50:48.112Z,3.30
2018-07-24T09:53:17.017Z,3.20
2018-07-24T09:55:45.775Z,3.40
2018-07-24T09:58:14.332Z,3.80
2018-07-24T10:00:48.706Z,3.13
2018-07-24T10:03:17.248Z,3.70
2018-07-24T10:05:45.808Z,3.53
2018-07-24T10:08:14.506Z,3.73
2018-07-24T10:10:43.385Z,3.63
2018-07-24T10:13:12.426Z,3.40
2018-07-24T10:15:41.189Z,3.53
2018-07-24T10:18:10.402Z,3.10
2018-07-24T10:20:39.364Z,3.10
2018-07-24T10:23:08.137Z,3.20
2018-07-24T10:25:36.980Z,2.97
2018-07-24T10:28:05.723Z,3.30
2018-07-24T10:30:34.569Z,3.07
2018-07-24T10:33:03.442Z,3.30
2018-07-24T10:35:32.537Z,2.80
2018-07-24T10:38:01.376Z,2.83
2018-07-24T10:40:30.244Z,2.87
2018-07-24T10:42:59.121Z,3.10
2018-07-24T10:45:27.675Z,2.70
2018-07-24T10:47:56.717Z,3.10
2018-07-24T10:50:25.622Z,2.80
2018-07-24T10:52:54.456Z,2.70
2018-07-24T10:55:23.227Z,3.33
2018-07-24T10:57:52.544Z,2.70
2018-07-24T11:00:21.406Z,2.73
2018-07-24T11:02:50.325Z,3.03
2018-07-24T11:05:19.291Z,3.20
2018-07-24T11:07:48.221Z,3.17
2018-07-24T11:10:17.022Z,3.13
2018-07-24T11:12:45.789Z,2.43
2018-07-24T11:15:14.489Z,3.17
2018-07-24T11:17:43.297Z,2.67
2018-07-24T11:20:11.913Z,2.80
2018-07-24T11:22:40.754Z,3.20
2018-07-24T11:25:09.441Z,3.10
2018-07-24T11:27:38.363Z,2.73
2018-07-24T11:30:07.421Z,2.70
2018-07-24T11:32:36.345Z,2.73
2018-07-24T11:35:05.209Z,3.00
2018-07-24T11:37:33.997Z,3.43
2018-07-24T11:40:03.143Z,2.80
2018-07-24T11:42:32.213Z,3.20
2018-07-24T11:45:00.982Z,3.40
2018-07-24T11:47:29.765Z,2.77
2018-07-24T11:49:58.557Z,2.90
2018-07-24T11:52:27.362Z,3.40
2018-07-24T11:54:56.313Z,2.83
2018-07-24T11:57:25.157Z,2.70
2018-07-24T11:59:54.205Z,2.93
2018-07-24T12:02:23.029Z,2.87
2018-07-24T12:04:51.838Z,2.93
2018-07-24T12:07:20.470Z,2.90
2018-07-24T12:09:49.308Z,3.07
2018-07-24T12:12:18.110Z,2.77
2018-07-24T12:14:46.963Z,2.97
2018-07-24T12:17:15.706Z,2.80
2018-07-24T12:19:44.082Z,2.77
2018-07-24T12:22:12.861Z,2.60
2018-07-24T12:24:41.714Z,3.03
2018-07-24T12:27:10.924Z,2.70
2018-07-24T12:29:39.574Z,3.00
2018-07-24T12:32:08.420Z,3.22
2018-07-24T12:34:37.213Z,3.17
2018-07-24T12:37:06.127Z,2.90
2018-07-24T12:39:34.927Z,2.80
2018-07-24T12:42:03.772Z,2.57
2018-07-24T12:44:32.626Z,2.50
2018-07-24T12:47:01.647Z,2.90
2018-07-24T12:49:30.597Z,3.33
2018-07-24T12:51:59.392Z,2.47
2018-07-24T12:54:28.345Z,3.40
2018-07-24T12:56:57.137Z,3.10
2018-07-24T12:59:25.949Z,3.63
2018-07-24T13:01:54.938Z,2.73
2018-07-24T13:04:23.850Z,2.87
2018-07-24T13:06:52.909Z,2.97
2018-07-24T13:09:21.694Z,3.20
2018-07-24T13:11:50.742Z,3.40
2018-07-24T13:14:19.567Z,3.40
2018-07-24T13:16:48.634Z,3.20
2018-07-24T13:19:18.105Z,2.93
2018-07-24T13:21:47.233Z,3.30
2018-07-24T13:24:16.169Z,3.13
2018-07-24T13:26:45.009Z,3.07
2018-07-24T13:29:14.118Z,2.87
2018-07-24T13:31:43.071Z,3.00
2018-07-24T13:34:12.304Z,3.00
2018-07-24T13:36:41.091Z,3.40
2018-07-24T13:39:11.153Z,3.10
2018-07-24T13:41:40.278Z,3.10
2018-07-24T13:44:09.543Z,3.17
2018-07-24T13:46:38.437Z,3.30
2018-07-24T13:49:07.531Z,3.50
2018-07-24T13:51:36.560Z,3.10
2018-07-24T13:54:05.448Z,3.40
2018-07-24T13:56:34.295Z,3.00
2018-07-24T13:59:03.189Z,2.87
2018-07-24T14:01:31.929Z,3.30
2018-07-24T14:04:00.930Z,3.80
2018-07-24T14:06:29.776Z,3.40
2018-07-24T14:08:58.889Z,3.13
2018-07-24T14:11:27.827Z,3.17
2018-07-24T14:13:56.400Z,3.27
2018-07-24T14:16:25.293Z,3.30
2018-07-24T14:18:54.196Z,3.17
2018-07-24T14:21:23.071Z,3.47
2018-07-24T14:23:52.317Z,2.97
2018-07-24T14:26:21.515Z,3.60
2018-07-24T14:28:50.387Z,3.60
2018-07-24T14:31:19.297Z,3.20
2018-07-24T14:33:48.090Z,3.47
2018-07-24T14:36:16.972Z,2.90
2018-07-24T14:38:45.781Z,3.60
2018-07-24T14:41:14.664Z,3.07
2018-07-24T14:43:43.458Z,3.20
2018-07-24T14:46:12.295Z,2.80
2018-07-24T14:48:41.135Z,2.63
2018-07-24T14:51:10.062Z,3.53
2018-07-24T14:53:38.874Z,2.47
2018-07-24T14:56:07.685Z,2.60
2018-07-24T14:58:36.580Z,2.90
2018-07-24T15:01:05.375Z,2.97
2018-07-24T15:03:34.280Z,2.80
2018-07-24T15:06:03.306Z,3.20
2018-07-24T15:08:32.202Z,2.40
2018-07-24T15:11:01.295Z,2.83
2018-07-24T15:13:30.165Z,3.00
2018-07-24T15:15:59.003Z,2.10
2018-07-24T15:18:27.785Z,2.80
2018-07-24T15:20:56.668Z,2.60
2018-07-24T15:23:25.609Z,2.60
2018-07-24T15:25:54.457Z,2.90
2018-07-24T15:28:23.321Z,2.50
2018-07-24T15:30:52.161Z,2.67
2018-07-24T15:33:20.946Z,2.70
2018-07-24T15:35:49.726Z,3.00
2018-07-24T15:38:18.574Z,2.37
2018-07-24T15:40:47.291Z,2.90
2018-07-24T15:43:16.208Z,2.87
2018-07-24T15:45:45.307Z,2.60
2018-07-24T15:48:14.078Z,2.80
2018-07-24T15:50:42.628Z,2.90
2018-07-24T15:53:11.445Z,2.63
2018-07-24T15:55:40.213Z,3.23
2018-07-24T15:58:09.062Z,2.90
2018-07-24T16:00:37.866Z,3.13
2018-07-24T16:03:06.829Z,3.40
2018-07-24T16:05:35.996Z,3.30
2018-07-24T16:08:05.005Z,2.90
2018-07-24T16:10:33.809Z,2.70
2018-07-24T16:13:02.385Z,2.40
2018-07-24T16:15:30.939Z,3.00
2018-07-24T16:17:59.352Z,2.43
2018-07-24T16:20:28.222Z,2.43
2018-07-24T16:22:56.789Z,2.90
2018-07-24T16:25:25.524Z,2.63
2018-07-24T16:27:54.399Z,2.70
2018-07-24T16:30:23.211Z,2.70
2018-07-24T16:32:52.369Z,2.80
2018-07-24T16:35:21.201Z,2.63
2018-07-24T16:37:50.101Z,3.30
2018-07-24T16:40:18.898Z,2.67
2018-07-24T16:42:47.894Z,2.93
2018-07-24T16:45:16.741Z,2.63
2018-07-24T16:47:45.585Z,2.57
2018-07-24T16:50:14.491Z,2.60
2018-07-24T16:52:43.261Z,4.20
2018-07-24T16:55:15.272Z,6.20
2018-07-24T16:57:44.201Z,4.50
2018-07-24T17:00:13.344Z,3.20
2018-07-24T17:02:42.246Z,2.93
2018-07-24T17:05:11.025Z,5.03
2018-07-24T17:07:40.117Z,2.50
2018-07-24T17:10:09.051Z,2.40
2018-07-24T17:12:38.039Z,3.40
2018-07-24T17:15:07.324Z,4.27
2018-07-24T17:17:36.096Z,3.20
2018-07-24T17:20:04.957Z,3.17
2018-07-24T17:22:33.728Z,4.73
2018-07-24T17:25:02.560Z,11.83
2018-07-24T17:27:31.619Z,18.90
2018-07-24T17:30:00.476Z,15.33
2018-07-24T17:32:29.268Z,12.07
2018-07-24T17:34:58.033Z,6.07
2018-07-24T17:37:26.789Z,14.93
2018-07-24T17:39:55.565Z,16.93
2018-07-24T17:42:24.352Z,27.93
2018-07-24T17:44:53.208Z,8.23
2018-07-24T17:47:22.053Z,14.00
2018-07-24T17:49:50.885Z,11.23
2018-07-24T17:52:19.781Z,15.93
2018-07-24T17:54:48.692Z,5.43
2018-07-24T17:57:17.577Z,11.73
2018-07-24T17:59:46.526Z,6.73
2018-07-24T18:02:15.574Z,6.60
2018-07-24T18:04:44.432Z,7.30
2018-07-24T18:07:13.293Z,7.30
2018-07-24T18:09:42.222Z,5.30
2018-07-24T18:12:11.072Z,10.53
2018-07-24T18:14:40.012Z,8.87
2018-07-24T18:17:09.805Z,4.63
2018-07-24T18:19:38.733Z,5.53
2018-07-24T18:22:07.501Z,6.63
2018-07-24T18:24:36.393Z,5.27
2018-07-24T18:27:05.311Z,7.23
2018-07-24T18:29:34.045Z,5.90
2018-07-24T18:32:03.042Z,4.67
2018-07-24T18:34:31.845Z,6.03
2018-07-24T18:37:01.137Z,7.47
2018-07-24T18:39:29.982Z,5.30
2018-07-24T18:41:58.886Z,4.53
2018-07-24T18:44:27.718Z,6.70
2018-07-24T18:46:56.715Z,6.60
2018-07-24T18:49:25.457Z,7.47
2018-07-24T18:51:54.373Z,8.10
2018-07-24T18:54:23.231Z,6.80
2018-07-24T18:56:53.025Z,5.23
2018-07-24T18:59:21.785Z,9.57
2018-07-24T19:01:50.608Z,11.20
2018-07-24T19:04:19.377Z,8.63
2018-07-24T19:06:48.193Z,11.07
2018-07-24T19:09:17.036Z,7.37
2018-07-24T19:11:46.077Z,5.93
2018-07-24T19:14:14.923Z,9.47
2018-07-24T19:16:43.829Z,11.03
2018-07-24T19:19:12.611Z,8.97
2018-07-24T19:21:41.457Z,9.80
2018-07-24T19:24:10.242Z,10.47
2018-07-24T19:26:39.127Z,9.53
2018-07-24T19:29:07.890Z,5.23
2018-07-24T19:31:36.937Z,4.83
2018-07-24T19:34:05.701Z,6.17
2018-07-24T19:36:34.501Z,4.70
2018-07-24T19:39:03.343Z,4.40
2018-07-24T19:41:32.100Z,83.20
2018-07-24T19:44:00.998Z,82.30
2018-07-24T19:46:29.785Z,53.70
2018-07-24T19:48:58.560Z,35.70
2018-07-24T19:51:27.366Z,20.80
2018-07-24T19:53:56.221Z,17.97
2018-07-24T19:56:25.083Z,19.43
2018-07-24T19:58:53.945Z,14.70
2018-07-24T20:01:22.729Z,13.60
2018-07-24T20:03:51.629Z,19.00
2018-07-24T20:06:20.433Z,23.77
2018-07-24T20:08:49.301Z,31.67
2018-07-24T20:11:17.882Z,32.10
2018-07-24T20:13:46.373Z,26.17
2018-07-24T20:16:15.205Z,15.80
2018-07-24T20:18:44.093Z,11.67
2018-07-24T20:21:12.882Z,8.60
2018-07-24T20:23:41.718Z,8.23
2018-07-24T20:26:10.466Z,6.30
2018-07-24T20:28:40.834Z,5.93
2018-07-24T20:31:09.620Z,4.83
2018-07-24T20:33:38.500Z,4.40
2018-07-24T20:36:07.396Z,4.07
2018-07-24T20:38:36.165Z,3.50
2018-07-24T20:41:04.970Z,3.43
2018-07-24T20:43:33.756Z,3.37
2018-07-24T20:46:02.561Z,3.23
2018-07-24T20:48:31.477Z,3.50
2018-07-24T20:51:00.269Z,3.33
2018-07-24T20:53:29.045Z,3.40
2018-07-24T20:55:57.809Z,3.53
2018-07-24T20:58:26.649Z,3.57
2018-07-24T21:00:55.438Z,3.37
2018-07-24T21:03:24.349Z,3.40
2018-07-24T21:05:53.104Z,3.30
2018-07-24T21:08:21.825Z,3.80
2018-07-24T21:10:50.600Z,3.70
2018-07-24T21:13:19.609Z,3.50
2018-07-24T21:15:48.522Z,3.60
2018-07-24T21:18:17.328Z,3.63
2018-07-24T21:20:46.180Z,3.87
2018-07-24T21:23:15.085Z,4.17
2018-07-24T21:25:43.961Z,3.80
2018-07-24T21:28:12.817Z,4.00
2018-07-24T21:30:41.653Z,3.83
2018-07-24T21:33:10.441Z,3.63
2018-07-24T21:35:39.213Z,3.30
2018-07-24T21:38:07.980Z,3.43
2018-07-24T21:40:36.754Z,3.17
2018-07-24T21:43:05.573Z,3.33
2018-07-24T21:45:34.426Z,3.60
2018-07-24T21:48:03.208Z,3.33
2018-07-24T21:50:32.021Z,3.23
2018-07-24T21:53:00.957Z,3.27
2018-07-24T21:55:29.881Z,3.50
2018-07-24T21:57:58.669Z,3.27
2018-07-24T22:00:31.910Z,3.17
2018-07-24T22:03:00.681Z,3.00
2018-07-24T22:05:29.458Z,3.27
2018-07-24T22:07:58.274Z,3.10
2018-07-24T22:10:27.063Z,2.60
2018-07-24T22:12:55.904Z,2.63
2018-07-24T22:15:25.320Z,2.87
2018-07-24T22:17:54.524Z,2.80
2018-07-24T22:20:23.582Z,3.10
2018-07-24T22:22:52.730Z,2.90
2018-07-24T22:25:21.504Z,3.57
2018-07-24T22:27:50.193Z,3.03
2018-07-24T22:30:18.887Z,2.80
2018-07-24T22:32:47.705Z,2.80
2018-07-24T22:35:16.474Z,2.47
2018-07-24T22:37:45.392Z,2.77
2018-07-24T22:40:14.373Z,2.70
2018-07-24T22:42:43.326Z,3.07
2018-07-24T22:45:11.881Z,2.60
2018-07-24T22:47:40.569Z,2.77
2018-07-24T22:50:10.556Z,2.70
2018-07-24T22:52:39.473Z,2.60
2018-07-24T22:55:08.250Z,2.90
2018-07-24T22:57:37.094Z,2.93
2018-07-24T23:00:05.801Z,2.97
2018-07-24T23:02:34.473Z,2.90
2018-07-24T23:05:03.308Z,2.80
2018-07-24T23:07:32.082Z,2.80
2018-07-24T23:10:00.854Z,2.90
2018-07-24T23:12:29.624Z,2.70
2018-07-24T23:14:58.217Z,2.67
2018-07-24T23:17:26.983Z,2.80
2018-07-24T23:19:55.789Z,2.53
2018-07-24T23:22:24.646Z,3.10
2018-07-24T23:24:53.394Z,2.80
2018-07-24T23:27:22.470Z,3.00
2018-07-24T23:29:51.273Z,2.73
2018-07-24T23:32:20.282Z,3.20
2018-07-24T23:34:49.056Z,3.27
2018-07-24T23:37:17.841Z,3.10
2018-07-24T23:39:46.625Z,2.70
2018-07-24T23:42:15.393Z,2.70
2018-07-24T23:44:44.424Z,2.57
2018-07-24T23:47:13.239Z,2.73
2018-07-24T23:49:42.030Z,2.40
2018-07-24T23:52:10.787Z,2.83
2018-07-24T23:54:39.561Z,2.90
2018-07-24T23:57:08.617Z,3.03
2018-07-24T23:59:37.523Z,2.90
